createdAt,value
2022-10-18T00:00:57.839Z,1.40
2022-10-18T00:03:30.783Z,1.40
2022-10-18T00:06:21.356Z,1.50
2022-10-18T00:09:26.802Z,1.58
2022-10-18T00:11:57.690Z,1.30
2022-10-18T00:14:31.303Z,1.77
2022-10-18T00:17:04.490Z,1.52
2022-10-18T00:19:38.838Z,1.70
2022-10-18T00:22:16.013Z,1.33
2022-10-18T00:25:09.673Z,1.40
2022-10-18T00:27:50.204Z,1.15
2022-10-18T00:30:21.603Z,1.63
2022-10-18T00:32:57.625Z,2.67
2022-10-18T00:35:39.974Z,1.20
2022-10-18T00:38:32.214Z,1.15
2022-10-18T00:48:20.085Z,1.63
2022-10-18T00:51:13.848Z,1.42
2022-10-18T00:56:43.437Z,1.27
2022-10-18T00:59:36.658Z,0.90
2022-10-18T01:02:59.342Z,0.90
2022-10-18T01:05:53.910Z,0.90
2022-10-18T01:08:54.335Z,0.80
2022-10-18T01:15:09.043Z,0.80
2022-10-18T01:17:56.480Z,0.80
2022-10-18T01:21:07.535Z,1.17
2022-10-18T01:24:16.553Z,0.90
2022-10-18T01:33:10.617Z,0.90
2022-10-18T01:36:04.052Z,0.80
2022-10-18T01:38:41.928Z,1.00
2022-10-18T01:41:26.668Z,1.10
2022-10-18T01:44:11.828Z,1.20
2022-10-18T01:47:10.311Z,0.80
2022-10-18T01:50:06.705Z,0.80
2022-10-18T01:52:42.752Z,0.90
2022-10-18T01:55:24.418Z,0.90
2022-10-18T01:58:09.517Z,0.90
2022-10-18T02:01:02.505Z,1.08
2022-10-18T02:03:46.977Z,1.13
2022-10-18T02:06:51.889Z,0.95
2022-10-18T02:09:55.440Z,1.00
2022-10-18T02:12:41.388Z,1.13
2022-10-18T02:15:20.706Z,1.10
2022-10-18T02:17:56.219Z,1.08
2022-10-18T02:20:42.671Z,0.98
2022-10-18T02:26:35.436Z,0.90
2022-10-18T02:29:19.992Z,0.85
2022-10-18T02:32:08.546Z,1.83
2022-10-18T02:34:50.752Z,1.00
2022-10-18T02:37:24.403Z,1.10
2022-10-18T02:40:14.009Z,1.00
2022-10-18T02:43:02.943Z,1.42
2022-10-18T02:45:39.154Z,1.10
2022-10-18T02:48:27.640Z,1.30
2022-10-18T02:51:06.052Z,1.42
2022-10-18T02:53:40.822Z,1.50
2022-10-18T02:56:32.062Z,1.58
2022-10-18T02:59:25.493Z,1.23
2022-10-18T03:02:00.514Z,1.38
2022-10-18T03:04:38.252Z,1.67
2022-10-18T03:07:17.423Z,1.38
2022-10-18T03:09:59.118Z,1.40
2022-10-18T03:12:45.208Z,1.85
2022-10-18T03:15:19.867Z,1.60
2022-10-18T03:18:00.094Z,1.25
2022-10-18T03:20:40.808Z,1.30
2022-10-18T03:23:26.170Z,1.60
2022-10-18T03:26:07.447Z,1.20
2022-10-18T03:28:55.423Z,1.30
2022-10-18T03:31:28.222Z,1.20
2022-10-18T03:34:03.943Z,1.30
2022-10-18T03:36:45.388Z,1.40
2022-10-18T03:39:21.655Z,1.30
2022-10-18T03:41:57.943Z,1.30
2022-10-18T03:44:36.568Z,1.20
2022-10-18T03:47:21.820Z,1.20
2022-10-18T03:49:57.447Z,1.17
2022-10-18T03:52:33.632Z,1.65
2022-10-18T03:55:14.622Z,1.30
2022-10-18T03:57:50.278Z,1.45
2022-10-18T04:00:30.421Z,1.50
2022-10-18T04:03:04.874Z,1.20
2022-10-18T04:05:44.019Z,1.80
2022-10-18T04:08:20.299Z,1.30
2022-10-18T04:10:53.698Z,1.52
2022-10-18T04:13:33.571Z,2.10
2022-10-18T04:19:21.985Z,1.60
2022-10-18T04:22:23.481Z,1.73
2022-10-18T04:25:11.253Z,1.50
2022-10-18T04:28:08.058Z,1.52
2022-10-18T04:30:40.890Z,1.70
2022-10-18T04:33:28.055Z,1.52
2022-10-18T04:36:14.952Z,1.77
2022-10-18T04:38:51.472Z,1.65
2022-10-18T04:41:34.511Z,2.05
2022-10-18T04:44:12.806Z,2.00
2022-10-18T04:47:04.262Z,1.80
2022-10-18T04:49:43.577Z,1.48
2022-10-18T04:52:17.537Z,2.42
2022-10-18T04:55:09.571Z,1.60
2022-10-18T04:57:46.840Z,1.60
2022-10-18T05:00:39.997Z,1.42
2022-10-18T05:03:28.086Z,1.60
2022-10-18T05:06:13.452Z,1.35
2022-10-18T05:08:47.904Z,1.30
2022-10-18T05:11:32.174Z,1.65
2022-10-18T05:14:23.769Z,1.50
2022-10-18T05:17:22.887Z,1.98
2022-10-18T05:23:02.009Z,1.60
2022-10-18T05:25:43.985Z,1.80
2022-10-18T05:28:43.878Z,1.75
2022-10-18T05:31:20.131Z,1.60
2022-10-18T05:34:06.799Z,1.48
2022-10-18T05:36:55.530Z,1.50
2022-10-18T05:39:45.048Z,1.60
2022-10-18T05:42:26.540Z,1.73
2022-10-18T05:45:02.032Z,1.50
2022-10-18T05:47:52.301Z,1.80
2022-10-18T05:50:29.519Z,1.80
2022-10-18T05:56:10.280Z,1.70
2022-10-18T05:58:47.787Z,1.52
2022-10-18T06:01:26.813Z,2.33
2022-10-18T06:04:09.092Z,2.50
2022-10-18T06:06:52.150Z,2.15
2022-10-18T06:09:38.511Z,2.15
2022-10-18T06:12:24.725Z,1.98
2022-10-18T06:15:02.823Z,2.50
2022-10-18T06:20:36.148Z,2.22
2022-10-18T06:23:15.717Z,1.85
2022-10-18T06:25:52.455Z,2.60
2022-10-18T06:28:36.507Z,1.85
2022-10-18T06:31:15.489Z,2.28
2022-10-18T06:33:54.233Z,1.90
2022-10-18T06:36:42.719Z,1.98
2022-10-18T06:39:29.713Z,2.05
2022-10-18T06:42:12.867Z,2.08
2022-10-18T06:45:21.162Z,2.78
2022-10-18T06:48:08.749Z,10.95
2022-10-18T06:50:49.390Z,51.22
2022-10-18T06:53:33.178Z,59.80
2022-10-18T06:56:17.517Z,59.08
2022-10-18T06:59:16.393Z,104.65
2022-10-18T07:02:19.038Z,62.40
2022-10-18T07:08:09.620Z,32.05
2022-10-18T07:10:47.943Z,12.68
2022-10-18T07:13:32.907Z,8.23
2022-10-18T07:16:22.819Z,5.15
2022-10-18T07:19:06.910Z,3.20
2022-10-18T07:21:50.947Z,4.78
2022-10-18T07:30:20.323Z,2.58
2022-10-18T07:33:14.183Z,2.95
2022-10-18T07:36:03.802Z,3.00
2022-10-18T07:39:05.589Z,3.30
2022-10-18T07:41:50.469Z,3.83
2022-10-18T07:44:30.517Z,3.08
2022-10-18T07:47:07.664Z,1.92
2022-10-18T07:49:51.094Z,2.15
2022-10-18T07:52:50.030Z,1.80
2022-10-18T07:55:35.089Z,2.47
2022-10-18T07:58:12.020Z,2.03
2022-10-18T08:01:09.301Z,2.55
2022-10-18T08:03:47.018Z,4.32
2022-10-18T08:06:26.646Z,3.30
2022-10-18T08:09:26.167Z,2.17
2022-10-18T08:12:16.893Z,1.80
2022-10-18T08:14:59.903Z,2.50
2022-10-18T08:17:42.885Z,1.90
2022-10-18T08:20:42.811Z,2.15
2022-10-18T08:23:27.162Z,2.53
2022-10-18T08:26:06.074Z,1.60
2022-10-18T08:28:53.942Z,1.60
2022-10-18T08:31:46.364Z,1.45
2022-10-18T08:34:33.089Z,6.50
2022-10-18T08:37:22.272Z,4.13
2022-10-18T08:40:13.327Z,3.05
2022-10-18T08:43:09.403Z,2.65
2022-10-18T08:45:51.496Z,3.88
2022-10-18T08:48:35.753Z,4.68
2022-10-18T08:51:44.167Z,5.47
2022-10-18T08:55:11.156Z,4.35
2022-10-18T08:57:58.594Z,5.50
2022-10-18T09:00:43.842Z,5.15
2022-10-18T09:03:39.948Z,4.30
2022-10-18T09:06:46.189Z,2.80
2022-10-18T09:09:31.535Z,2.13
2022-10-18T09:12:33.750Z,1.52
2022-10-18T09:15:34.932Z,1.83
2022-10-18T09:21:50.046Z,1.92
2022-10-18T09:24:40.096Z,2.50
2022-10-18T09:27:32.382Z,2.20
2022-10-18T09:36:44.593Z,2.20
2022-10-18T09:40:00.991Z,1.85
2022-10-18T09:45:56.219Z,1.90
2022-10-18T09:48:51.125Z,1.67
2022-10-18T09:51:39.522Z,1.80
2022-10-18T09:54:34.267Z,2.20
2022-10-18T09:57:28.493Z,3.20
2022-10-18T10:03:24.800Z,3.30
2022-10-18T10:06:21.500Z,2.22
2022-10-18T10:09:14.968Z,2.40
2022-10-18T10:12:09.689Z,2.28
2022-10-18T10:15:05.157Z,2.30
2022-10-18T10:17:43.980Z,1.70
2022-10-18T10:20:32.694Z,2.30
2022-10-18T10:23:23.356Z,2.70
2022-10-18T10:26:11.283Z,2.38
2022-10-18T10:28:54.282Z,3.30
2022-10-18T10:31:54.715Z,3.00
2022-10-18T10:34:42.324Z,2.90
2022-10-18T10:37:48.745Z,2.88
2022-10-18T10:40:36.812Z,2.38
2022-10-18T10:43:40.313Z,2.17
2022-10-18T10:52:26.749Z,3.47
2022-10-18T10:55:33.797Z,3.38
2022-10-18T10:58:25.645Z,2.88
2022-10-18T11:01:16.747Z,3.83
2022-10-18T11:04:01.201Z,5.55
2022-10-18T11:07:03.767Z,7.18
2022-10-18T11:10:01.985Z,8.05
2022-10-18T11:16:15.523Z,9.68
2022-10-18T11:18:59.147Z,7.90
2022-10-18T11:21:43.545Z,8.60
2022-10-18T11:24:31.827Z,8.85
2022-10-18T11:27:28.213Z,13.52
2022-10-18T11:30:22.973Z,10.40
2022-10-18T11:33:07.755Z,9.90
2022-10-18T11:36:04.817Z,9.23
2022-10-18T11:38:57.340Z,7.97
2022-10-18T11:42:01.863Z,8.20
2022-10-18T11:44:50.828Z,8.02
2022-10-18T11:47:53.688Z,8.55
2022-10-18T11:50:40.515Z,7.47
2022-10-18T11:53:27.416Z,8.32
2022-10-18T11:56:19.820Z,8.63
2022-10-18T11:59:21.830Z,10.88
2022-10-18T12:02:08.276Z,10.48
2022-10-18T12:05:18.855Z,9.63
2022-10-18T12:08:06.557Z,7.50
2022-10-18T12:11:05.796Z,7.20
2022-10-18T12:14:03.744Z,7.20
2022-10-18T12:16:53.638Z,6.85
2022-10-18T12:19:53.202Z,6.63
2022-10-18T12:22:40.337Z,6.20
2022-10-18T12:25:42.443Z,6.40
2022-10-18T12:28:56.883Z,6.53
2022-10-18T12:31:42.501Z,6.18
2022-10-18T12:34:50.988Z,6.40
2022-10-18T12:38:04.896Z,6.43
2022-10-18T12:40:56.972Z,6.15
2022-10-18T12:43:44.068Z,7.20
2022-10-18T12:46:22.424Z,7.47
2022-10-18T12:49:16.749Z,6.85
2022-10-18T12:52:13.590Z,9.15
2022-10-18T12:55:22.266Z,6.65
2022-10-18T12:58:41.508Z,5.90
2022-10-18T13:01:20.708Z,6.78
2022-10-18T13:04:00.759Z,6.97
2022-10-18T13:07:18.599Z,6.38
2022-10-18T13:10:25.136Z,7.10
2022-10-18T13:17:01.593Z,6.88
2022-10-18T13:20:25.085Z,6.72
2022-10-18T13:23:37.878Z,7.47
2022-10-18T13:26:34.811Z,6.30
2022-10-18T13:32:32.892Z,5.43
2022-10-18T13:39:03.942Z,5.50
2022-10-18T13:42:36.277Z,5.00
2022-10-18T13:45:58.601Z,5.53
2022-10-18T13:49:05.104Z,5.93
2022-10-18T13:52:05.997Z,5.80
2022-10-18T13:55:13.183Z,5.80
2022-10-18T13:58:23.882Z,5.65
2022-10-18T14:01:20.711Z,5.80
2022-10-18T14:04:46.640Z,5.97
2022-10-18T14:07:30.109Z,5.72
2022-10-18T14:10:08.764Z,5.28
2022-10-18T14:12:51.744Z,5.38
2022-10-18T14:15:44.113Z,5.40
2022-10-18T14:18:35.986Z,4.15
2022-10-18T14:24:31.483Z,3.60
2022-10-18T14:27:28.217Z,3.05
2022-10-18T14:30:30.464Z,3.05
2022-10-18T14:33:39.747Z,2.67
2022-10-18T14:36:34.038Z,3.40
2022-10-18T14:39:13.826Z,2.90
2022-10-18T14:42:09.229Z,2.20
2022-10-18T14:44:56.653Z,5.13
2022-10-18T14:47:42.475Z,3.92
2022-10-18T14:50:33.472Z,2.30
2022-10-18T14:53:35.189Z,2.95
2022-10-18T14:59:13.538Z,2.80
2022-10-18T15:02:09.629Z,2.53
2022-10-18T15:04:59.564Z,2.33
2022-10-18T15:10:37.653Z,2.63
2022-10-18T15:13:30.631Z,2.25
2022-10-18T15:16:08.860Z,3.15
2022-10-18T15:18:48.152Z,2.10
2022-10-18T15:25:32.240Z,1.80
2022-10-18T15:28:12.719Z,2.03
2022-10-18T15:30:54.184Z,1.80
2022-10-18T15:33:42.717Z,1.60
2022-10-18T15:36:39.748Z,1.40
2022-10-18T15:39:40.130Z,1.80
2022-10-18T15:42:56.510Z,1.80
2022-10-18T15:48:53.750Z,1.70
2022-10-18T15:51:54.682Z,1.83
2022-10-18T15:54:40.889Z,2.00
2022-10-18T15:57:18.429Z,2.00
2022-10-18T16:00:08.910Z,1.77
2022-10-18T16:03:08.605Z,1.77
2022-10-18T16:05:46.661Z,2.17
2022-10-18T16:08:41.415Z,2.35
2022-10-18T16:11:35.385Z,2.25
2022-10-18T16:14:14.767Z,1.60
2022-10-18T16:16:53.574Z,1.90
2022-10-18T16:19:50.469Z,1.67
2022-10-18T16:22:31.113Z,1.60
2022-10-18T16:25:11.712Z,2.20
2022-10-18T16:27:50.086Z,1.85
2022-10-18T16:30:44.344Z,1.70
2022-10-18T16:33:31.049Z,1.80
2022-10-18T16:36:09.528Z,1.60
2022-10-18T16:38:48.123Z,1.98
2022-10-18T16:41:24.982Z,1.67
2022-10-18T16:44:04.059Z,1.80
2022-10-18T16:46:42.363Z,1.80
2022-10-18T16:49:28.273Z,1.80
2022-10-18T16:52:20.826Z,1.67
2022-10-18T16:55:01.055Z,1.70
2022-10-18T17:00:49.768Z,1.63
2022-10-18T17:03:30.174Z,1.88
2022-10-18T17:06:30.879Z,2.00
2022-10-18T17:09:18.314Z,1.80
2022-10-18T17:11:55.152Z,1.80
2022-10-18T17:14:48.765Z,1.60
2022-10-18T17:18:01.372Z,2.13
2022-10-18T17:20:51.801Z,1.75
2022-10-18T17:23:31.677Z,1.60
2022-10-18T17:26:30.869Z,1.58
2022-10-18T17:29:49.918Z,1.50
2022-10-18T17:32:29.679Z,1.90
2022-10-18T17:35:07.182Z,1.50
2022-10-18T17:37:45.421Z,1.98
2022-10-18T17:40:26.227Z,1.80
2022-10-18T17:43:24.618Z,1.65
2022-10-18T17:46:02.654Z,1.75
2022-10-18T17:48:39.264Z,1.85
2022-10-18T17:51:18.296Z,1.70
2022-10-18T17:54:05.889Z,1.55
2022-10-18T17:56:43.788Z,1.77
2022-10-18T17:59:21.588Z,2.17
2022-10-18T18:02:10.928Z,1.80
2022-10-18T18:04:53.871Z,1.70
2022-10-18T18:07:39.218Z,1.88
2022-10-18T18:10:25.446Z,1.92
2022-10-18T18:13:17.650Z,1.90
2022-10-18T18:16:09.915Z,1.80
2022-10-18T18:21:53.204Z,1.80
2022-10-18T18:24:34.119Z,2.00
2022-10-18T18:27:12.565Z,1.85
2022-10-18T18:29:51.271Z,1.70
2022-10-18T18:32:40.261Z,1.80
2022-10-18T18:35:22.564Z,1.80
2022-10-18T18:38:14.097Z,1.73
2022-10-18T18:43:59.948Z,1.83
2022-10-18T18:46:51.309Z,1.95
2022-10-18T18:49:33.511Z,1.77
2022-10-18T18:52:14.671Z,1.83
2022-10-18T18:54:57.701Z,1.90
2022-10-18T18:57:35.231Z,2.03
2022-10-18T19:00:14.392Z,1.85
2022-10-18T19:03:00.552Z,2.00
2022-10-18T19:05:49.262Z,2.10
2022-10-18T19:08:24.251Z,1.55
2022-10-18T19:11:17.227Z,1.90
2022-10-18T19:14:04.926Z,2.00
2022-10-18T19:16:46.892Z,2.30
2022-10-18T19:19:29.556Z,2.08
2022-10-18T19:22:24.090Z,2.50
2022-10-18T19:25:02.169Z,2.40
2022-10-18T19:28:13.154Z,1.95
2022-10-18T19:31:00.952Z,2.25
2022-10-18T19:33:48.403Z,2.38
2022-10-18T19:36:34.246Z,2.42
2022-10-18T19:39:20.717Z,2.83
2022-10-18T19:42:09.418Z,3.10
2022-10-18T19:45:02.127Z,2.20
2022-10-18T19:50:16.564Z,2.80
2022-10-18T19:53:03.045Z,3.15
2022-10-18T19:56:07.100Z,3.30
2022-10-18T19:59:10.418Z,3.42
2022-10-18T20:01:48.275Z,4.38
2022-10-18T20:04:25.564Z,4.57
2022-10-18T20:07:09.924Z,3.92
2022-10-18T20:09:59.204Z,4.60
2022-10-18T20:12:47.347Z,5.30
2022-10-18T20:15:33.528Z,4.25
2022-10-18T20:18:32.969Z,5.22
2022-10-18T20:21:13.069Z,4.30
2022-10-18T20:23:50.388Z,4.60
2022-10-18T20:26:28.295Z,5.47
2022-10-18T20:32:28.641Z,3.83
2022-10-18T20:35:12.542Z,3.10
2022-10-18T20:38:05.205Z,2.83
2022-10-18T20:40:45.453Z,2.60
2022-10-18T20:43:30.749Z,3.30
2022-10-18T20:46:19.304Z,3.42
2022-10-18T20:48:56.358Z,2.13
2022-10-18T20:51:58.043Z,3.05
2022-10-18T20:54:44.770Z,2.15
2022-10-18T20:57:37.776Z,2.35
2022-10-18T21:00:36.228Z,26.52
2022-10-18T21:08:41.115Z,2.70
2022-10-18T21:11:24.377Z,1.90
2022-10-18T21:14:13.367Z,1.70
2022-10-18T21:16:56.312Z,1.83
2022-10-18T21:22:29.581Z,1.98
2022-10-18T21:25:07.660Z,1.90
2022-10-18T21:27:53.980Z,1.67
2022-10-18T21:30:47.861Z,2.17
2022-10-18T21:33:36.443Z,1.92
2022-10-18T21:36:42.260Z,2.00
2022-10-18T21:39:33.627Z,1.85
2022-10-18T21:44:57.587Z,1.95
2022-10-18T21:47:36.807Z,2.15
2022-10-18T21:50:16.633Z,2.63
2022-10-18T21:55:53.072Z,2.13
2022-10-18T22:01:32.298Z,2.40
2022-10-18T22:04:17.542Z,2.10
2022-10-18T22:06:52.778Z,2.15
2022-10-18T22:09:38.378Z,2.47
2022-10-18T22:12:29.378Z,1.85
2022-10-18T22:15:11.324Z,2.13
2022-10-18T22:17:50.089Z,2.08
2022-10-18T22:20:30.367Z,2.15
2022-10-18T22:23:22.453Z,2.33
2022-10-18T22:26:08.681Z,2.03
2022-10-18T22:29:20.538Z,1.83
2022-10-18T22:32:12.191Z,1.88
2022-10-18T22:34:51.846Z,1.70
2022-10-18T22:41:07.044Z,1.58
2022-10-18T22:44:03.393Z,1.88
2022-10-18T22:46:48.373Z,2.22
2022-10-18T22:52:37.265Z,1.98
2022-10-18T22:55:36.738Z,1.55
2022-10-18T22:58:20.230Z,2.03
2022-10-18T23:01:09.032Z,2.70
2022-10-18T23:04:00.585Z,1.70
2022-10-18T23:06:37.777Z,1.92
2022-10-18T23:09:30.061Z,1.55
2022-10-18T23:12:11.476Z,1.60
2022-10-18T23:14:48.999Z,1.65
2022-10-18T23:17:42.879Z,1.98
2022-10-18T23:20:20.206Z,1.63
2022-10-18T23:22:59.711Z,1.45
2022-10-18T23:25:52.932Z,1.73
2022-10-18T23:28:32.793Z,1.70
2022-10-18T23:31:13.163Z,1.60
2022-10-18T23:34:03.450Z,1.80
2022-10-18T23:36:45.728Z,1.45
2022-10-18T23:39:34.722Z,1.40
2022-10-18T23:42:16.977Z,1.48
2022-10-18T23:45:02.802Z,1.60
2022-10-18T23:47:41.464Z,1.38
2022-10-18T23:50:27.271Z,1.42
2022-10-18T23:53:05.091Z,1.23
2022-10-18T23:55:43.508Z,1.25
2022-10-18T23:58:31.987Z,1.45
